sensor_id;sensor_type;location;lat;lon;timestamp;temperature;humidity
814;DHT22;389;48.710;9.392;2023-08-06T00:00:57;17.10;99.90
814;DHT22;389;48.710;9.392;2023-08-06T00:03:22;17.20;99.90
814;DHT22;389;48.710;9.392;2023-08-06T00:05:48;17.20;99.90
814;DHT22;389;48.710;9.392;2023-08-06T00:08:28;17.10;99.90
814;DHT22;389;48.710;9.392;2023-08-06T00:10:53;17.10;99.90
814;DHT22;389;48.710;9.392;2023-08-06T00:13:19;17.10;99.90
814;DHT22;389;48.710;9.392;2023-08-06T00:15:44;17.10;99.90
814;DHT22;389;48.710;9.392;2023-08-06T00:18:10;17.00;99.90
814;DHT22;389;48.710;9.392;2023-08-06T00:20:38;17.00;99.90
814;DHT22;389;48.710;9.392;2023-08-06T00:23:04;16.90;99.90
814;DHT22;389;48.710;9.392;2023-08-06T00:25:30;16.90;99.90
814;DHT22;389;48.710;9.392;2023-08-06T00:27:55;16.80;99.90
814;DHT22;389;48.710;9.392;2023-08-06T00:30:21;16.70;99.90
814;DHT22;389;48.710;9.392;2023-08-06T00:32:47;16.70;99.90
814;DHT22;389;48.710;9.392;2023-08-06T00:35:13;16.60;99.90
814;DHT22;389;48.710;9.392;2023-08-06T00:37:39;16.50;99.90
814;DHT22;389;48.710;9.392;2023-08-06T00:40:06;16.50;99.90
814;DHT22;389;48.710;9.392;2023-08-06T00:42:31;16.40;99.90
814;DHT22;389;48.710;9.392;2023-08-06T00:44:57;16.40;99.90
814;DHT22;389;48.710;9.392;2023-08-06T00:47:23;16.30;99.90
814;DHT22;389;48.710;9.392;2023-08-06T00:49:49;16.30;99.90
814;DHT22;389;48.710;9.392;2023-08-06T00:52:15;16.20;99.90
814;DHT22;389;48.710;9.392;2023-08-06T00:54:41;16.10;99.90
814;DHT22;389;48.710;9.392;2023-08-06T00:57:07;16.10;99.90
814;DHT22;389;48.710;9.392;2023-08-06T00:59:34;16.10;99.90
814;DHT22;389;48.710;9.392;2023-08-06T01:02:00;16.00;99.90
814;DHT22;389;48.710;9.392;2023-08-06T01:04:25;16.00;99.90
814;DHT22;389;48.710;9.392;2023-08-06T01:07:21;16.10;99.90
814;DHT22;389;48.710;9.392;2023-08-06T01:15:23;16.00;99.90
814;DHT22;389;48.710;9.392;2023-08-06T01:17:50;16.00;99.90
814;DHT22;389;48.710;9.392;2023-08-06T01:20:17;15.90;99.90
814;DHT22;389;48.710;9.392;2023-08-06T01:23:01;15.90;99.90
814;DHT22;389;48.710;9.392;2023-08-06T01:25:36;15.80;99.90
814;DHT22;389;48.710;9.392;2023-08-06T01:28:12;15.70;99.90
814;DHT22;389;48.710;9.392;2023-08-06T01:30:42;15.60;99.90
814;DHT22;389;48.710;9.392;2023-08-06T01:33:11;15.60;99.90
814;DHT22;389;48.710;9.392;2023-08-06T01:35:39;15.50;99.90
814;DHT22;389;48.710;9.392;2023-08-06T01:38:04;15.50;99.90
814;DHT22;389;48.710;9.392;2023-08-06T01:40:30;15.40;99.90
814;DHT22;389;48.710;9.392;2023-08-06T01:42:56;15.40;99.90
814;DHT22;389;48.710;9.392;2023-08-06T01:45:21;15.30;99.90
814;DHT22;389;48.710;9.392;2023-08-06T01:47:47;15.30;99.90
814;DHT22;389;48.710;9.392;2023-08-06T01:50:13;15.30;99.90
814;DHT22;389;48.710;9.392;2023-08-06T01:52:39;15.30;99.90
814;DHT22;389;48.710;9.392;2023-08-06T01:55:04;15.20;99.90
814;DHT22;389;48.710;9.392;2023-08-06T01:57:30;15.20;99.90
814;DHT22;389;48.710;9.392;2023-08-06T01:59:55;15.20;99.90
814;DHT22;389;48.710;9.392;2023-08-06T02:02:21;15.30;99.90
814;DHT22;389;48.710;9.392;2023-08-06T02:04:47;15.30;99.90
814;DHT22;389;48.710;9.392;2023-08-06T02:07:12;15.30;99.90
814;DHT22;389;48.710;9.392;2023-08-06T02:09:38;15.30;99.90
814;DHT22;389;48.710;9.392;2023-08-06T02:12:03;15.30;99.90
814;DHT22;389;48.710;9.392;2023-08-06T02:14:29;15.40;99.90
814;DHT22;389;48.710;9.392;2023-08-06T02:16:55;15.40;99.90
814;DHT22;389;48.710;9.392;2023-08-06T02:19:20;15.40;99.90
814;DHT22;389;48.710;9.392;2023-08-06T02:21:46;15.40;99.90
814;DHT22;389;48.710;9.392;2023-08-06T02:24:11;15.50;99.90
814;DHT22;389;48.710;9.392;2023-08-06T02:26:37;15.50;99.90
814;DHT22;389;48.710;9.392;2023-08-06T02:29:03;15.60;99.90
814;DHT22;389;48.710;9.392;2023-08-06T02:31:28;15.60;99.90
814;DHT22;389;48.710;9.392;2023-08-06T02:33:54;15.60;99.90
814;DHT22;389;48.710;9.392;2023-08-06T02:36:19;15.50;99.90
814;DHT22;389;48.710;9.392;2023-08-06T02:38:45;15.50;99.90
814;DHT22;389;48.710;9.392;2023-08-06T02:41:10;15.50;99.90
814;DHT22;389;48.710;9.392;2023-08-06T02:43:36;15.50;99.90
814;DHT22;389;48.710;9.392;2023-08-06T02:46:01;15.50;99.90
814;DHT22;389;48.710;9.392;2023-08-06T02:48:27;15.40;99.90
814;DHT22;389;48.710;9.392;2023-08-06T02:50:57;15.30;99.90
814;DHT22;389;48.710;9.392;2023-08-06T02:53:24;15.30;99.90
814;DHT22;389;48.710;9.392;2023-08-06T02:55:49;15.20;99.90
814;DHT22;389;48.710;9.392;2023-08-06T02:58:15;15.20;99.90
814;DHT22;389;48.710;9.392;2023-08-06T03:00:41;15.10;99.90
814;DHT22;389;48.710;9.392;2023-08-06T03:03:41;15.10;99.90
814;DHT22;389;48.710;9.392;2023-08-06T03:06:07;15.10;99.90
814;DHT22;389;48.710;9.392;2023-08-06T03:08:32;15.00;99.90
814;DHT22;389;48.710;9.392;2023-08-06T03:10:58;15.00;99.90
814;DHT22;389;48.710;9.392;2023-08-06T03:13:23;14.90;99.90
814;DHT22;389;48.710;9.392;2023-08-06T03:15:54;14.90;99.90
814;DHT22;389;48.710;9.392;2023-08-06T03:18:19;14.90;99.90
814;DHT22;389;48.710;9.392;2023-08-06T03:20:46;14.90;99.90
814;DHT22;389;48.710;9.392;2023-08-06T03:23:11;14.70;99.90
814;DHT22;389;48.710;9.392;2023-08-06T03:25:37;14.70;99.90
814;DHT22;389;48.710;9.392;2023-08-06T03:28:02;14.60;99.90
814;DHT22;389;48.710;9.392;2023-08-06T03:30:28;14.60;99.90
814;DHT22;389;48.710;9.392;2023-08-06T03:32:53;14.60;99.90
814;DHT22;389;48.710;9.392;2023-08-06T03:35:19;14.60;99.90
814;DHT22;389;48.710;9.392;2023-08-06T03:37:45;14.60;99.90
814;DHT22;389;48.710;9.392;2023-08-06T03:40:10;14.60;99.90
814;DHT22;389;48.710;9.392;2023-08-06T03:42:36;14.60;99.90
814;DHT22;389;48.710;9.392;2023-08-06T03:45:02;14.60;99.90
814;DHT22;389;48.710;9.392;2023-08-06T03:47:28;14.60;99.90
814;DHT22;389;48.710;9.392;2023-08-06T03:49:53;14.60;99.90
814;DHT22;389;48.710;9.392;2023-08-06T03:52:19;14.70;99.90
814;DHT22;389;48.710;9.392;2023-08-06T03:54:45;14.70;99.90
814;DHT22;389;48.710;9.392;2023-08-06T03:57:10;14.80;99.90
814;DHT22;389;48.710;9.392;2023-08-06T03:59:36;14.80;99.90
814;DHT22;389;48.710;9.392;2023-08-06T04:02:02;14.90;99.90
814;DHT22;389;48.710;9.392;2023-08-06T04:04:27;14.90;99.90
814;DHT22;389;48.710;9.392;2023-08-06T04:06:53;14.90;99.90
814;DHT22;389;48.710;9.392;2023-08-06T04:09:18;15.00;99.90
814;DHT22;389;48.710;9.392;2023-08-06T04:11:44;15.00;99.90
814;DHT22;389;48.710;9.392;2023-08-06T04:14:10;15.10;99.90
814;DHT22;389;48.710;9.392;2023-08-06T04:16:36;15.10;99.90
814;DHT22;389;48.710;9.392;2023-08-06T04:19:01;15.10;99.90
814;DHT22;389;48.710;9.392;2023-08-06T04:21:27;15.10;99.90
814;DHT22;389;48.710;9.392;2023-08-06T04:23:52;15.10;99.90
814;DHT22;389;48.710;9.392;2023-08-06T04:26:18;15.10;99.90
814;DHT22;389;48.710;9.392;2023-08-06T04:28:43;15.20;99.90
814;DHT22;389;48.710;9.392;2023-08-06T04:31:09;15.30;99.90
814;DHT22;389;48.710;9.392;2023-08-06T04:33:35;15.30;99.90
814;DHT22;389;48.710;9.392;2023-08-06T04:36:00;15.40;99.90
814;DHT22;389;48.710;9.392;2023-08-06T04:38:26;15.40;99.90
814;DHT22;389;48.710;9.392;2023-08-06T04:40:52;15.40;99.90
814;DHT22;389;48.710;9.392;2023-08-06T04:43:18;15.50;99.90
814;DHT22;389;48.710;9.392;2023-08-06T04:45:50;15.50;99.90
814;DHT22;389;48.710;9.392;2023-08-06T04:48:17;15.50;99.90
814;DHT22;389;48.710;9.392;2023-08-06T04:50:46;15.50;99.90
814;DHT22;389;48.710;9.392;2023-08-06T04:53:12;15.60;99.90
814;DHT22;389;48.710;9.392;2023-08-06T04:55:38;15.60;99.90
814;DHT22;389;48.710;9.392;2023-08-06T04:58:04;15.60;99.90
814;DHT22;389;48.710;9.392;2023-08-06T05:00:30;15.70;99.90
814;DHT22;389;48.710;9.392;2023-08-06T05:02:55;15.70;99.90
814;DHT22;389;48.710;9.392;2023-08-06T05:05:21;15.70;99.90
814;DHT22;389;48.710;9.392;2023-08-06T05:07:49;15.70;99.90
814;DHT22;389;48.710;9.392;2023-08-06T05:10:15;15.80;99.90
814;DHT22;389;48.710;9.392;2023-08-06T05:12:40;15.90;99.90
814;DHT22;389;48.710;9.392;2023-08-06T05:15:06;15.90;99.90
814;DHT22;389;48.710;9.392;2023-08-06T05:17:32;15.90;99.90
814;DHT22;389;48.710;9.392;2023-08-06T05:19:58;16.00;99.90
814;DHT22;389;48.710;9.392;2023-08-06T05:22:23;15.90;99.90
814;DHT22;389;48.710;9.392;2023-08-06T05:24:49;16.00;99.90
814;DHT22;389;48.710;9.392;2023-08-06T05:27:14;16.00;99.90
814;DHT22;389;48.710;9.392;2023-08-06T05:29:40;16.00;99.90
814;DHT22;389;48.710;9.392;2023-08-06T05:32:06;16.10;99.90
814;DHT22;389;48.710;9.392;2023-08-06T05:34:31;16.10;99.90
814;DHT22;389;48.710;9.392;2023-08-06T05:37:20;16.20;99.90
814;DHT22;389;48.710;9.392;2023-08-06T05:39:46;16.40;99.90
814;DHT22;389;48.710;9.392;2023-08-06T05:42:11;16.60;99.90
814;DHT22;389;48.710;9.392;2023-08-06T05:44:37;16.80;99.90
814;DHT22;389;48.710;9.392;2023-08-06T05:47:03;16.90;99.90
814;DHT22;389;48.710;9.392;2023-08-06T05:49:28;17.00;99.90
814;DHT22;389;48.710;9.392;2023-08-06T05:51:54;17.10;99.90
814;DHT22;389;48.710;9.392;2023-08-06T05:54:20;17.30;99.90
814;DHT22;389;48.710;9.392;2023-08-06T05:56:45;17.60;99.90
814;DHT22;389;48.710;9.392;2023-08-06T05:59:11;17.90;99.90
814;DHT22;389;48.710;9.392;2023-08-06T06:01:36;18.30;99.90
814;DHT22;389;48.710;9.392;2023-08-06T06:04:02;18.70;99.90
814;DHT22;389;48.710;9.392;2023-08-06T06:06:27;19.00;99.70
814;DHT22;389;48.710;9.392;2023-08-06T06:11:53;19.30;98.30
814;DHT22;389;48.710;9.392;2023-08-06T06:14:19;19.20;97.80
814;DHT22;389;48.710;9.392;2023-08-06T06:16:45;19.10;97.80
814;DHT22;389;48.710;9.392;2023-08-06T06:19:12;18.90;97.90
814;DHT22;389;48.710;9.392;2023-08-06T06:21:38;18.80;97.80
814;DHT22;389;48.710;9.392;2023-08-06T06:24:04;18.60;98.10
814;DHT22;389;48.710;9.392;2023-08-06T06:26:31;18.50;98.30
814;DHT22;389;48.710;9.392;2023-08-06T06:28:56;18.50;98.40
814;DHT22;389;48.710;9.392;2023-08-06T06:31:22;18.40;98.70
814;DHT22;389;48.710;9.392;2023-08-06T06:33:47;18.40;98.70
814;DHT22;389;48.710;9.392;2023-08-06T06:36:13;18.50;98.80
814;DHT22;389;48.710;9.392;2023-08-06T06:38:41;18.50;98.40
814;DHT22;389;48.710;9.392;2023-08-06T06:41:07;18.50;98.10
814;DHT22;389;48.710;9.392;2023-08-06T06:43:33;18.50;97.70
814;DHT22;389;48.710;9.392;2023-08-06T06:45:59;18.40;97.90
814;DHT22;389;48.710;9.392;2023-08-06T06:48:29;18.30;98.00
814;DHT22;389;48.710;9.392;2023-08-06T06:50:55;18.20;97.70
814;DHT22;389;48.710;9.392;2023-08-06T06:53:23;18.20;97.80
814;DHT22;389;48.710;9.392;2023-08-06T06:56:09;18.10;98.10
814;DHT22;389;48.710;9.392;2023-08-06T06:58:35;18.10;98.40
814;DHT22;389;48.710;9.392;2023-08-06T07:01:14;18.20;99.00
814;DHT22;389;48.710;9.392;2023-08-06T07:03:40;18.40;98.90
814;DHT22;389;48.710;9.392;2023-08-06T07:06:06;18.60;98.90
814;DHT22;389;48.710;9.392;2023-08-06T07:08:32;18.80;99.00
814;DHT22;389;48.710;9.392;2023-08-06T07:11:20;18.90;98.10
814;DHT22;389;48.710;9.392;2023-08-06T07:13:46;19.10;98.00
814;DHT22;389;48.710;9.392;2023-08-06T07:16:12;19.20;97.70
814;DHT22;389;48.710;9.392;2023-08-06T07:18:37;19.20;97.50
814;DHT22;389;48.710;9.392;2023-08-06T07:21:03;19.10;97.10
814;DHT22;389;48.710;9.392;2023-08-06T07:23:29;19.00;97.10
814;DHT22;389;48.710;9.392;2023-08-06T07:25:54;18.80;97.40
814;DHT22;389;48.710;9.392;2023-08-06T07:28:20;18.60;98.30
814;DHT22;389;48.710;9.392;2023-08-06T07:30:49;18.40;98.70
814;DHT22;389;48.710;9.392;2023-08-06T07:33:21;18.30;98.80
814;DHT22;389;48.710;9.392;2023-08-06T07:35:47;18.30;99.20
814;DHT22;389;48.710;9.392;2023-08-06T07:38:18;18.30;99.30
814;DHT22;389;48.710;9.392;2023-08-06T07:40:45;18.30;99.30
814;DHT22;389;48.710;9.392;2023-08-06T07:43:11;18.20;99.40
814;DHT22;389;48.710;9.392;2023-08-06T07:45:46;18.10;99.70
814;DHT22;389;48.710;9.392;2023-08-06T07:48:12;18.00;99.90
814;DHT22;389;48.710;9.392;2023-08-06T07:50:37;17.90;99.90
814;DHT22;389;48.710;9.392;2023-08-06T07:53:03;17.90;99.90
814;DHT22;389;48.710;9.392;2023-08-06T07:55:28;17.80;99.90
814;DHT22;389;48.710;9.392;2023-08-06T07:57:54;17.80;99.90
814;DHT22;389;48.710;9.392;2023-08-06T08:00:22;17.80;99.70
814;DHT22;389;48.710;9.392;2023-08-06T08:02:48;17.70;99.60
814;DHT22;389;48.710;9.392;2023-08-06T08:05:13;17.80;99.90
814;DHT22;389;48.710;9.392;2023-08-06T08:07:41;17.80;99.90
814;DHT22;389;48.710;9.392;2023-08-06T08:10:09;18.00;99.80
814;DHT22;389;48.710;9.392;2023-08-06T08:12:35;18.20;99.50
814;DHT22;389;48.710;9.392;2023-08-06T08:15:05;18.40;99.30
814;DHT22;389;48.710;9.392;2023-08-06T08:17:33;18.60;99.00
814;DHT22;389;48.710;9.392;2023-08-06T08:20:00;18.90;99.40
814;DHT22;389;48.710;9.392;2023-08-06T08:22:26;19.30;98.50
814;DHT22;389;48.710;9.392;2023-08-06T08:24:52;19.60;97.40
814;DHT22;389;48.710;9.392;2023-08-06T08:27:18;19.70;97.20
814;DHT22;389;48.710;9.392;2023-08-06T08:29:48;19.80;96.40
814;DHT22;389;48.710;9.392;2023-08-06T08:32:16;19.80;96.20
814;DHT22;389;48.710;9.392;2023-08-06T08:34:42;19.90;96.20
814;DHT22;389;48.710;9.392;2023-08-06T08:37:08;20.00;96.50
814;DHT22;389;48.710;9.392;2023-08-06T08:39:34;20.10;96.20
814;DHT22;389;48.710;9.392;2023-08-06T08:42:00;20.00;95.50
814;DHT22;389;48.710;9.392;2023-08-06T08:44:34;19.90;95.80
814;DHT22;389;48.710;9.392;2023-08-06T08:47:03;19.70;95.50
814;DHT22;389;48.710;9.392;2023-08-06T08:49:30;19.60;96.00
814;DHT22;389;48.710;9.392;2023-08-06T08:51:56;19.50;95.80
814;DHT22;389;48.710;9.392;2023-08-06T08:54:23;19.40;96.40
814;DHT22;389;48.710;9.392;2023-08-06T08:56:49;19.40;96.60
814;DHT22;389;48.710;9.392;2023-08-06T08:59:15;19.40;96.50
814;DHT22;389;48.710;9.392;2023-08-06T09:01:42;19.40;96.50
814;DHT22;389;48.710;9.392;2023-08-06T09:04:12;19.50;96.50
814;DHT22;389;48.710;9.392;2023-08-06T09:06:39;19.40;96.10
814;DHT22;389;48.710;9.392;2023-08-06T09:09:08;19.50;96.50
814;DHT22;389;48.710;9.392;2023-08-06T09:11:39;19.50;96.30
814;DHT22;389;48.710;9.392;2023-08-06T09:14:07;19.50;96.00
814;DHT22;389;48.710;9.392;2023-08-06T09:16:37;19.60;95.70
814;DHT22;389;48.710;9.392;2023-08-06T09:19:13;19.50;95.80
814;DHT22;389;48.710;9.392;2023-08-06T09:21:42;19.80;95.90
814;DHT22;389;48.710;9.392;2023-08-06T09:24:09;19.90;95.70
814;DHT22;389;48.710;9.392;2023-08-06T09:26:36;20.10;95.30
814;DHT22;389;48.710;9.392;2023-08-06T09:29:05;20.20;94.90
814;DHT22;389;48.710;9.392;2023-08-06T09:31:45;20.30;94.80
814;DHT22;389;48.710;9.392;2023-08-06T09:34:26;20.40;95.10
814;DHT22;389;48.710;9.392;2023-08-06T09:36:54;20.40;95.00
814;DHT22;389;48.710;9.392;2023-08-06T09:39:21;20.50;94.70
814;DHT22;389;48.710;9.392;2023-08-06T09:41:47;20.50;94.00
814;DHT22;389;48.710;9.392;2023-08-06T09:44:24;20.60;94.50
814;DHT22;389;48.710;9.392;2023-08-06T09:46:52;20.60;94.50
814;DHT22;389;48.710;9.392;2023-08-06T09:49:19;20.80;94.30
814;DHT22;389;48.710;9.392;2023-08-06T09:51:48;20.90;93.80
814;DHT22;389;48.710;9.392;2023-08-06T09:54:19;20.90;93.70
814;DHT22;389;48.710;9.392;2023-08-06T09:56:45;20.90;93.70
814;DHT22;389;48.710;9.392;2023-08-06T09:59:10;20.90;94.00
814;DHT22;389;48.710;9.392;2023-08-06T10:01:38;21.00;94.40
814;DHT22;389;48.710;9.392;2023-08-06T10:04:06;21.00;94.10
814;DHT22;389;48.710;9.392;2023-08-06T10:06:36;21.10;94.20
814;DHT22;389;48.710;9.392;2023-08-06T10:09:03;21.10;93.80
814;DHT22;389;48.710;9.392;2023-08-06T10:11:29;21.00;93.80
814;DHT22;389;48.710;9.392;2023-08-06T10:17:00;21.00;93.80
814;DHT22;389;48.710;9.392;2023-08-06T10:19:27;21.00;94.00
814;DHT22;389;48.710;9.392;2023-08-06T10:22:13;20.90;94.30
814;DHT22;389;48.710;9.392;2023-08-06T10:25:05;20.90;95.20
814;DHT22;389;48.710;9.392;2023-08-06T10:27:56;20.80;95.50
814;DHT22;389;48.710;9.392;2023-08-06T10:32:53;20.50;95.70
814;DHT22;389;48.710;9.392;2023-08-06T10:35:41;20.30;96.30
814;DHT22;389;48.710;9.392;2023-08-06T10:38:19;20.00;96.80
814;DHT22;389;48.710;9.392;2023-08-06T10:43:36;19.70;97.70
814;DHT22;389;48.710;9.392;2023-08-06T10:46:10;19.50;97.90
814;DHT22;389;48.710;9.392;2023-08-06T10:48:37;19.40;98.70
814;DHT22;389;48.710;9.392;2023-08-06T10:51:08;19.50;98.80
814;DHT22;389;48.710;9.392;2023-08-06T10:53:34;19.60;98.50
814;DHT22;389;48.710;9.392;2023-08-06T10:56:00;19.60;98.20
814;DHT22;389;48.710;9.392;2023-08-06T10:58:26;19.60;98.30
814;DHT22;389;48.710;9.392;2023-08-06T11:00:52;19.50;98.40
814;DHT22;389;48.710;9.392;2023-08-06T11:03:17;19.30;98.40
814;DHT22;389;48.710;9.392;2023-08-06T11:05:49;19.20;98.70
814;DHT22;389;48.710;9.392;2023-08-06T11:08:26;19.00;98.90
814;DHT22;389;48.710;9.392;2023-08-06T11:10:52;19.00;99.40
814;DHT22;389;48.710;9.392;2023-08-06T11:13:18;18.90;99.50
814;DHT22;389;48.710;9.392;2023-08-06T11:15:45;18.90;99.50
814;DHT22;389;48.710;9.392;2023-08-06T11:18:11;18.90;99.40
814;DHT22;389;48.710;9.392;2023-08-06T11:20:43;18.90;99.30
814;DHT22;389;48.710;9.392;2023-08-06T11:23:10;19.00;99.50
814;DHT22;389;48.710;9.392;2023-08-06T11:25:46;19.00;99.50
814;DHT22;389;48.710;9.392;2023-08-06T11:28:13;19.10;99.40
814;DHT22;389;48.710;9.392;2023-08-06T11:30:40;19.10;98.80
814;DHT22;389;48.710;9.392;2023-08-06T11:33:07;19.10;99.00
814;DHT22;389;48.710;9.392;2023-08-06T11:35:35;19.00;99.10
814;DHT22;389;48.710;9.392;2023-08-06T11:38:01;18.80;99.20
814;DHT22;389;48.710;9.392;2023-08-06T11:40:27;18.60;99.90
814;DHT22;389;48.710;9.392;2023-08-06T11:42:52;18.40;99.90
814;DHT22;389;48.710;9.392;2023-08-06T11:45:23;18.20;99.90
814;DHT22;389;48.710;9.392;2023-08-06T11:47:53;18.10;99.90
814;DHT22;389;48.710;9.392;2023-08-06T11:50:38;18.10;99.90
814;DHT22;389;48.710;9.392;2023-08-06T11:53:04;18.20;99.90
814;DHT22;389;48.710;9.392;2023-08-06T11:55:30;18.20;99.90
814;DHT22;389;48.710;9.392;2023-08-06T11:57:57;18.30;99.90
814;DHT22;389;48.710;9.392;2023-08-06T12:00:23;18.40;99.90
814;DHT22;389;48.710;9.392;2023-08-06T12:02:51;18.50;98.70
814;DHT22;389;48.710;9.392;2023-08-06T12:05:19;18.60;98.60
814;DHT22;389;48.710;9.392;2023-08-06T12:07:52;18.80;98.30
814;DHT22;389;48.710;9.392;2023-08-06T12:10:19;18.90;97.90
814;DHT22;389;48.710;9.392;2023-08-06T12:12:46;18.90;97.10
814;DHT22;389;48.710;9.392;2023-08-06T12:15:12;18.90;97.10
814;DHT22;389;48.710;9.392;2023-08-06T12:17:38;18.90;96.00
814;DHT22;389;48.710;9.392;2023-08-06T12:20:05;18.80;96.30
814;DHT22;389;48.710;9.392;2023-08-06T12:22:31;18.60;96.10
814;DHT22;389;48.710;9.392;2023-08-06T12:25:04;18.50;96.00
814;DHT22;389;48.710;9.392;2023-08-06T12:27:36;18.40;96.10
814;DHT22;389;48.710;9.392;2023-08-06T12:30:03;18.30;96.40
814;DHT22;389;48.710;9.392;2023-08-06T12:32:30;18.20;96.10
814;DHT22;389;48.710;9.392;2023-08-06T12:34:55;18.20;96.70
814;DHT22;389;48.710;9.392;2023-08-06T12:37:21;18.10;96.60
814;DHT22;389;48.710;9.392;2023-08-06T12:39:47;18.10;96.30
814;DHT22;389;48.710;9.392;2023-08-06T12:42:12;18.10;96.10
814;DHT22;389;48.710;9.392;2023-08-06T12:44:38;18.00;96.10
814;DHT22;389;48.710;9.392;2023-08-06T12:47:04;18.00;96.60
814;DHT22;389;48.710;9.392;2023-08-06T12:49:29;18.10;96.30
814;DHT22;389;48.710;9.392;2023-08-06T12:51:57;18.00;96.00
814;DHT22;389;48.710;9.392;2023-08-06T12:54:25;18.00;96.40
814;DHT22;389;48.710;9.392;2023-08-06T12:56:50;18.00;95.40
814;DHT22;389;48.710;9.392;2023-08-06T12:59:17;18.00;95.60
814;DHT22;389;48.710;9.392;2023-08-06T13:01:43;18.10;95.40
814;DHT22;389;48.710;9.392;2023-08-06T13:04:09;18.00;95.10
814;DHT22;389;48.710;9.392;2023-08-06T13:06:35;18.10;95.40
814;DHT22;389;48.710;9.392;2023-08-06T13:09:11;18.20;95.90
814;DHT22;389;48.710;9.392;2023-08-06T13:11:37;18.30;95.80
814;DHT22;389;48.710;9.392;2023-08-06T13:14:10;18.40;95.20
814;DHT22;389;48.710;9.392;2023-08-06T13:16:38;18.50;95.10
814;DHT22;389;48.710;9.392;2023-08-06T13:19:05;18.50;95.10
814;DHT22;389;48.710;9.392;2023-08-06T13:24:06;18.70;94.10
814;DHT22;389;48.710;9.392;2023-08-06T13:26:32;18.70;93.70
814;DHT22;389;48.710;9.392;2023-08-06T13:28:58;18.70;93.70
814;DHT22;389;48.710;9.392;2023-08-06T13:31:24;18.80;93.60
814;DHT22;389;48.710;9.392;2023-08-06T13:33:50;18.90;93.70
814;DHT22;389;48.710;9.392;2023-08-06T13:36:18;19.20;93.20
814;DHT22;389;48.710;9.392;2023-08-06T13:38:44;19.40;92.70
814;DHT22;389;48.710;9.392;2023-08-06T13:41:10;19.60;92.10
814;DHT22;389;48.710;9.392;2023-08-06T13:43:35;19.60;92.00
814;DHT22;389;48.710;9.392;2023-08-06T13:46:01;19.70;92.20
814;DHT22;389;48.710;9.392;2023-08-06T13:48:27;19.70;91.90
814;DHT22;389;48.710;9.392;2023-08-06T13:50:52;19.60;91.30
814;DHT22;389;48.710;9.392;2023-08-06T13:53:18;19.50;91.30
814;DHT22;389;48.710;9.392;2023-08-06T13:55:44;19.50;91.50
814;DHT22;389;48.710;9.392;2023-08-06T13:58:09;19.50;91.90
814;DHT22;389;48.710;9.392;2023-08-06T14:00:38;19.40;91.80
814;DHT22;389;48.710;9.392;2023-08-06T14:03:03;19.40;91.60
814;DHT22;389;48.710;9.392;2023-08-06T14:05:29;19.30;91.20
814;DHT22;389;48.710;9.392;2023-08-06T14:07:55;19.30;91.30
814;DHT22;389;48.710;9.392;2023-08-06T14:10:20;19.20;91.10
814;DHT22;389;48.710;9.392;2023-08-06T14:12:46;19.20;91.00
814;DHT22;389;48.710;9.392;2023-08-06T14:15:12;19.20;91.30
814;DHT22;389;48.710;9.392;2023-08-06T14:17:37;19.30;91.40
814;DHT22;389;48.710;9.392;2023-08-06T14:20:04;19.40;91.20
814;DHT22;389;48.710;9.392;2023-08-06T14:22:30;19.40;91.10
814;DHT22;389;48.710;9.392;2023-08-06T14:24:57;19.50;90.80
814;DHT22;389;48.710;9.392;2023-08-06T14:27:23;19.50;90.60
814;DHT22;389;48.710;9.392;2023-08-06T14:29:49;19.40;90.50
814;DHT22;389;48.710;9.392;2023-08-06T14:32:14;19.40;90.80
814;DHT22;389;48.710;9.392;2023-08-06T14:34:43;19.30;90.40
814;DHT22;389;48.710;9.392;2023-08-06T14:37:09;19.30;90.40
814;DHT22;389;48.710;9.392;2023-08-06T14:39:35;19.30;90.90
814;DHT22;389;48.710;9.392;2023-08-06T14:42:00;19.40;91.10
814;DHT22;389;48.710;9.392;2023-08-06T14:44:26;19.40;90.60
814;DHT22;389;48.710;9.392;2023-08-06T14:46:51;19.40;90.80
814;DHT22;389;48.710;9.392;2023-08-06T14:49:17;19.40;90.90
814;DHT22;389;48.710;9.392;2023-08-06T14:51:42;19.40;90.40
814;DHT22;389;48.710;9.392;2023-08-06T14:54:08;19.30;90.50
814;DHT22;389;48.710;9.392;2023-08-06T14:56:34;19.20;90.60
814;DHT22;389;48.710;9.392;2023-08-06T14:58:59;19.10;90.70
814;DHT22;389;48.710;9.392;2023-08-06T15:01:26;19.00;91.00
814;DHT22;389;48.710;9.392;2023-08-06T15:03:51;18.80;91.30
814;DHT22;389;48.710;9.392;2023-08-06T15:06:17;18.70;91.80
814;DHT22;389;48.710;9.392;2023-08-06T15:08:42;18.60;92.30
814;DHT22;389;48.710;9.392;2023-08-06T15:11:12;18.60;92.60
814;DHT22;389;48.710;9.392;2023-08-06T15:13:38;18.50;92.70
814;DHT22;389;48.710;9.392;2023-08-06T15:16:03;18.40;92.70
814;DHT22;389;48.710;9.392;2023-08-06T15:18:29;18.30;92.90
814;DHT22;389;48.710;9.392;2023-08-06T15:20:54;18.30;92.70
814;DHT22;389;48.710;9.392;2023-08-06T15:23:21;18.20;92.80
814;DHT22;389;48.710;9.392;2023-08-06T15:25:46;18.20;92.60
814;DHT22;389;48.710;9.392;2023-08-06T15:28:12;18.30;93.00
814;DHT22;389;48.710;9.392;2023-08-06T15:30:38;18.30;92.90
814;DHT22;389;48.710;9.392;2023-08-06T15:33:05;18.40;93.00
814;DHT22;389;48.710;9.392;2023-08-06T15:35:31;18.60;92.70
814;DHT22;389;48.710;9.392;2023-08-06T15:37:57;18.90;92.80
814;DHT22;389;48.710;9.392;2023-08-06T15:40:22;19.00;92.00
814;DHT22;389;48.710;9.392;2023-08-06T15:42:49;19.30;91.90
814;DHT22;389;48.710;9.392;2023-08-06T15:45:14;19.50;91.30
814;DHT22;389;48.710;9.392;2023-08-06T15:47:40;19.50;90.90
814;DHT22;389;48.710;9.392;2023-08-06T15:50:07;19.50;90.90
814;DHT22;389;48.710;9.392;2023-08-06T15:52:34;19.60;90.50
814;DHT22;389;48.710;9.392;2023-08-06T15:55:00;19.70;90.30
814;DHT22;389;48.710;9.392;2023-08-06T15:57:32;19.80;90.20
814;DHT22;389;48.710;9.392;2023-08-06T15:59:58;19.80;90.20
814;DHT22;389;48.710;9.392;2023-08-06T16:02:23;19.90;90.20
814;DHT22;389;48.710;9.392;2023-08-06T16:04:49;20.00;90.20
814;DHT22;389;48.710;9.392;2023-08-06T16:07:16;20.20;90.30
814;DHT22;389;48.710;9.392;2023-08-06T16:09:42;20.10;89.10
814;DHT22;389;48.710;9.392;2023-08-06T16:12:08;20.20;88.90
814;DHT22;389;48.710;9.392;2023-08-06T16:14:35;20.20;88.80
814;DHT22;389;48.710;9.392;2023-08-06T16:17:00;20.30;89.10
814;DHT22;389;48.710;9.392;2023-08-06T16:19:26;20.10;88.80
814;DHT22;389;48.710;9.392;2023-08-06T16:21:52;20.10;89.50
814;DHT22;389;48.710;9.392;2023-08-06T16:24:17;20.10;88.80
814;DHT22;389;48.710;9.392;2023-08-06T16:26:43;19.90;87.70
814;DHT22;389;48.710;9.392;2023-08-06T16:29:08;19.80;87.10
814;DHT22;389;48.710;9.392;2023-08-06T16:31:37;19.70;87.30
814;DHT22;389;48.710;9.392;2023-08-06T16:34:03;19.70;87.80
814;DHT22;389;48.710;9.392;2023-08-06T16:36:29;19.60;88.50
814;DHT22;389;48.710;9.392;2023-08-06T16:38:54;19.60;88.20
814;DHT22;389;48.710;9.392;2023-08-06T16:41:22;19.40;87.40
814;DHT22;389;48.710;9.392;2023-08-06T16:43:47;19.30;87.30
814;DHT22;389;48.710;9.392;2023-08-06T16:46:13;19.20;87.90
814;DHT22;389;48.710;9.392;2023-08-06T16:48:39;19.00;88.10
814;DHT22;389;48.710;9.392;2023-08-06T16:51:05;19.00;88.30
814;DHT22;389;48.710;9.392;2023-08-06T16:53:30;18.90;88.70